Time;durP1;ratioP1;P1;durP2;ratioP2;P2;SDS_P1;SDS_P2;PMS_P1;PMS_P2;Temp;Humidity;BMP_temperature;BMP_pressure;BME280_temperature;BME280_humidity;BME280_pressure;Samples;Min_cycle;Max_cycle;Signal;HPM_P1;HPM_P2
2024/01/03 00:01:22;;;;;;;45.40;21.83;;;7.70;79.60;;;;;;5057581;28;20079;-65
2024/01/03 00:03:48;;;;;;;40.85;19.00;;;7.70;79.60;;;;;;5057427;28;20037;-66
2024/01/03 00:06:17;;;;;;;44.10;19.73;;;7.70;79.60;;;;;;5058028;28;20095;-65
2024/01/03 00:08:43;;;;;;;45.35;22.67;;;7.70;79.60;;;;;;5057423;28;20025;-65
2024/01/03 00:11:19;;;;;;;45.45;21.80;;;7.70;79.70;;;;;;5057945;28;20028;-66
2024/01/03 00:14:18;;;;;;;43.67;20.85;;;7.70;79.70;;;;;;5057375;28;20489;-66
2024/01/03 00:16:44;;;;;;;44.85;20.30;;;7.70;79.60;;;;;;5038077;28;20048;-66
2024/01/03 00:19:16;;;;;;;48.03;22.05;;;7.70;79.70;;;;;;5057805;28;20025;-66
2024/01/03 00:21:42;;;;;;;44.78;21.42;;;7.70;79.60;;;;;;5057481;28;20055;-66
2024/01/03 00:24:11;;;;;;;42.80;21.25;;;7.70;79.60;;;;;;5057168;28;20154;-64
2024/01/03 00:26:40;;;;;;;48.10;22.33;;;7.70;79.60;;;;;;5057006;28;20021;-65
2024/01/03 00:29:19;;;;;;;44.08;19.63;;;7.70;79.60;;;;;;5057394;28;20070;-66
2024/01/03 00:31:46;;;;;;;45.08;22.08;;;7.70;79.60;;;;;;5057323;28;20103;-65
2024/01/03 00:34:21;;;;;;;42.20;19.90;;;7.70;79.60;;;;;;5039575;28;20048;-65
2024/01/03 00:36:54;;;;;;;40.75;19.92;;;7.70;79.60;;;;;;5056727;28;20029;-66
2024/01/03 00:39:40;;;;;;;44.47;20.20;;;7.70;79.60;;;;;;5057470;28;20021;-65
2024/01/03 00:42:06;;;;;;;37.60;18.50;;;7.70;79.60;;;;;;5056663;28;20029;-64
2024/01/03 00:44:32;;;;;;;46.15;21.50;;;7.70;79.60;;;;;;5056198;28;20103;-66
2024/01/03 00:46:58;;;;;;;47.58;21.98;;;7.70;79.70;;;;;;5056901;28;20135;-66
2024/01/03 00:49:24;;;;;;;53.15;24.08;;;7.70;79.70;;;;;;5039248;28;20079;-65
2024/01/03 00:51:50;;;;;;;42.60;20.40;;;7.70;79.70;;;;;;5056788;28;20441;-65
2024/01/03 00:54:18;;;;;;;45.70;21.50;;;7.70;79.60;;;;;;5056911;28;20029;-65
2024/01/03 00:56:45;;;;;;;47.17;20.95;;;7.70;79.60;;;;;;5039222;28;20025;-65
2024/01/03 00:59:12;;;;;;;42.60;20.33;;;7.70;79.60;;;;;;5056761;28;20032;-65
2024/01/03 01:01:39;;;;;;;49.10;22.80;;;7.70;79.60;;;;;;5056479;28;20104;-65
2024/01/03 01:04:05;;;;;;;48.35;24.42;;;7.70;79.60;;;;;;5056665;28;20021;-65
2024/01/03 01:06:31;;;;;;;46.92;21.90;;;7.70;79.40;;;;;;5056831;28;20048;-66
2024/01/03 01:08:57;;;;;;;43.83;20.55;;;7.60;79.50;;;;;;5056326;28;20457;-65
2024/01/03 01:11:23;;;;;;;47.45;21.15;;;7.60;79.60;;;;;;5056286;28;20017;-65
2024/01/03 01:13:49;;;;;;;44.90;21.67;;;7.60;79.70;;;;;;5056505;28;20544;-66
2024/01/03 01:16:15;;;;;;;45.50;21.25;;;7.60;79.70;;;;;;5056665;28;20029;-65
2024/01/03 01:18:42;;;;;;;43.47;20.80;;;7.60;79.90;;;;;;5056586;28;20033;-65
2024/01/03 01:21:08;;;;;;;45.72;20.88;;;7.60;79.90;;;;;;5056020;28;20025;-65
2024/01/03 01:23:34;;;;;;;46.05;21.33;;;7.60;79.90;;;;;;5056042;28;20021;-66
2024/01/03 01:26:00;;;;;;;41.03;19.75;;;7.60;79.90;;;;;;5055957;28;20104;-66
2024/01/03 01:28:26;;;;;;;43.33;20.42;;;7.60;79.90;;;;;;5055898;28;20072;-66
2024/01/03 01:30:52;;;;;;;42.25;20.88;;;7.70;80.00;;;;;;5056465;28;20056;-66
2024/01/03 01:33:18;;;;;;;44.10;22.50;;;7.70;80.00;;;;;;5056400;28;20052;-66
2024/01/03 01:35:43;;;;;;;42.20;21.48;;;7.70;79.90;;;;;;5055784;28;20382;-66
2024/01/03 01:38:09;;;;;;;41.25;20.48;;;7.70;79.90;;;;;;5055748;28;20087;-66
2024/01/03 01:40:35;;;;;;;41.22;19.73;;;7.70;79.90;;;;;;5055789;28;20021;-66
2024/01/03 01:43:02;;;;;;;40.55;19.63;;;7.70;79.90;;;;;;5055977;28;20109;-65
2024/01/03 01:45:28;;;;;;;42.33;20.75;;;7.70;80.00;;;;;;5055610;28;20039;-64
2024/01/03 01:47:54;;;;;;;43.20;21.10;;;7.70;80.00;;;;;;5055373;28;20053;-66
2024/01/03 01:50:20;;;;;;;44.97;21.13;;;7.70;79.90;;;;;;5056138;28;20488;-66
2024/01/03 01:52:48;;;;;;;44.92;21.60;;;7.70;79.90;;;;;;5055806;28;20055;-65
2024/01/03 01:55:15;;;;;;;47.40;20.92;;;7.70;80.00;;;;;;5054757;28;20028;-65
2024/01/03 01:57:42;;;;;;;42.35;19.40;;;7.70;80.00;;;;;;5038216;28;20033;-66
2024/01/03 02:00:09;;;;;;;41.83;20.73;;;7.80;79.90;;;;;;5055942;28;20396;-65
2024/01/03 02:02:36;;;;;;;43.45;20.40;;;7.80;79.90;;;;;;5055388;28;20349;-65
2024/01/03 02:05:02;;;;;;;45.83;20.95;;;7.70;79.90;;;;;;5055619;28;20021;-65
2024/01/03 02:07:30;;;;;;;42.53;19.77;;;7.80;79.90;;;;;;5055426;28;20033;-65
2024/01/03 02:09:56;;;;;;;40.35;19.50;;;7.70;79.90;;;;;;5055595;28;20074;-65
2024/01/03 02:12:29;;;;;;;43.15;19.90;;;7.80;80.00;;;;;;5055529;28;20033;-65
2024/01/03 02:14:55;;;;;;;39.33;19.35;;;7.80;80.00;;;;;;5056124;28;20051;-64
2024/01/03 02:17:21;;;;;;;44.97;20.52;;;7.80;80.00;;;;;;5055332;28;20049;-65
2024/01/03 02:19:48;;;;;;;44.70;21.25;;;7.70;80.00;;;;;;5055225;28;20021;-65
2024/01/03 02:22:14;;;;;;;44.00;20.63;;;7.70;80.10;;;;;;5055707;28;20032;-66
2024/01/03 02:24:40;;;;;;;40.65;19.65;;;7.70;80.10;;;;;;5055089;28;20350;-65
2024/01/03 02:27:05;;;;;;;40.00;19.40;;;7.70;80.20;;;;;;5055032;28;20086;-65
2024/01/03 02:29:31;;;;;;;41.15;20.10;;;7.70;80.10;;;;;;5055114;28;20025;-66
2024/01/03 02:31:58;;;;;;;41.45;20.42;;;7.80;80.20;;;;;;5055119;28;20029;-64
2024/01/03 02:34:25;;;;;;;41.80;20.35;;;7.70;80.20;;;;;;5055098;28;20108;-66
2024/01/03 02:36:52;;;;;;;39.88;19.30;;;7.80;80.20;;;;;;5055120;28;20056;-66
2024/01/03 02:39:18;;;;;;;44.75;18.90;;;7.80;80.10;;;;;;5055280;28;20434;-66
2024/01/03 02:41:44;;;;;;;38.80;18.65;;;7.80;80.10;;;;;;5055247;28;20025;-66
2024/01/03 02:44:11;;;;;;;40.30;19.85;;;7.70;80.10;;;;;;5055503;28;20342;-66
2024/01/03 02:46:37;;;;;;;40.13;19.17;;;7.80;80.20;;;;;;5054938;28;20087;-66
2024/01/03 02:49:03;;;;;;;45.15;19.58;;;7.80;80.00;;;;;;5055465;28;20366;-65
2024/01/03 02:51:29;;;;;;;42.40;19.25;;;7.80;80.00;;;;;;5055435;28;20366;-65
2024/01/03 02:53:54;;;;;;;43.63;20.60;;;7.80;80.00;;;;;;5055435;28;20071;-66
2024/01/03 02:56:20;;;;;;;47.67;21.15;;;7.70;80.00;;;;;;5055256;28;20045;-66
2024/01/03 02:58:46;;;;;;;42.75;19.65;;;7.70;80.10;;;;;;5055390;28;20029;-65
2024/01/03 03:01:13;;;;;;;44.03;20.48;;;7.70;80.10;;;;;;5055045;28;20029;-65
2024/01/03 03:03:39;;;;;;;46.08;20.73;;;7.80;80.10;;;;;;5054815;28;20024;-65
2024/01/03 03:06:05;;;;;;;40.88;18.90;;;7.80;80.20;;;;;;5054712;28;20123;-65
2024/01/03 03:08:31;;;;;;;40.83;21.05;;;7.80;80.20;;;;;;5057985;28;20469;-65
2024/01/03 03:10:57;;;;;;;43.17;19.42;;;7.80;80.30;;;;;;5058525;28;20032;-65
2024/01/03 03:13:24;;;;;;;41.92;19.85;;;7.80;80.20;;;;;;5041127;28;20032;-65
2024/01/03 03:15:50;;;;;;;41.47;19.50;;;7.80;80.30;;;;;;5058337;28;20064;-65
2024/01/03 03:18:15;;;;;;;44.38;20.02;;;7.80;80.20;;;;;;5058545;28;20091;-65
2024/01/03 03:20:41;;;;;;;40.10;19.13;;;7.80;80.20;;;;;;5058927;28;20342;-66
2024/01/03 03:23:07;;;;;;;43.72;20.23;;;7.80;80.10;;;;;;5058621;28;20457;-65
2024/01/03 03:25:33;;;;;;;43.83;20.55;;;7.80;80.10;;;;;;5058597;28;20052;-65
2024/01/03 03:27:59;;;;;;;42.53;19.85;;;7.80;80.10;;;;;;5058714;28;20036;-65
2024/01/03 03:30:26;;;;;;;39.22;19.25;;;7.90;80.10;;;;;;5058453;28;20101;-65
2024/01/03 03:32:51;;;;;;;46.83;20.95;;;7.80;80.00;;;;;;5058424;28;20100;-64
2024/01/03 03:35:17;;;;;;;41.50;20.50;;;7.80;80.00;;;;;;5058652;28;20404;-65
2024/01/03 03:37:43;;;;;;;40.42;18.80;;;7.80;80.00;;;;;;5058034;28;20334;-65
2024/01/03 03:40:09;;;;;;;43.85;19.77;;;7.80;80.10;;;;;;5058621;28;20036;-65
2024/01/03 03:42:35;;;;;;;44.38;19.55;;;7.80;80.10;;;;;;5058023;28;20025;-65
2024/01/03 03:45:02;;;;;;;45.78;21.23;;;7.80;80.10;;;;;;5040325;28;20075;-65
2024/01/03 03:47:27;;;;;;;48.40;19.92;;;7.70;80.00;;;;;;5036755;28;20050;-65
2024/01/03 03:49:54;;;;;;;47.88;19.25;;;7.80;80.10;;;;;;5058101;28;20052;-64
2024/01/03 03:52:19;;;;;;;46.75;20.67;;;7.80;80.10;;;;;;5057833;28;20091;-64
2024/01/03 03:54:45;;;;;;;43.38;20.38;;;7.80;80.20;;;;;;5058053;28;20434;-66
2024/01/03 03:57:12;;;;;;;48.58;21.48;;;7.80;80.10;;;;;;5057555;28;20428;-66
2024/01/03 03:59:39;;;;;;;47.28;21.38;;;7.80;80.20;;;;;;5057916;28;20063;-65
2024/01/03 04:02:05;;;;;;;41.60;19.48;;;7.80;80.20;;;;;;5058092;28;20032;-66
2024/01/03 04:04:31;;;;;;;38.53;19.67;;;7.80;80.20;;;;;;5057596;28;20017;-65
2024/01/03 04:06:57;;;;;;;46.10;20.13;;;7.80;80.20;;;;;;5040106;28;20047;-66
2024/01/03 04:09:24;;;;;;;40.97;19.98;;;7.80;80.20;;;;;;5057719;28;20112;-64
2024/01/03 04:11:50;;;;;;;41.45;20.13;;;7.80;80.10;;;;;;5057643;28;20079;-65
2024/01/03 04:14:16;;;;;;;52.90;25.20;;;7.80;80.10;;;;;;5057911;28;20033;-65
2024/01/03 04:16:42;;;;;;;47.47;24.23;;;7.80;80.10;;;;;;5057717;28;20101;-65
2024/01/03 04:19:08;;;;;;;43.70;21.40;;;7.80;80.10;;;;;;5056294;28;20144;-65
2024/01/03 04:21:34;;;;;;;38.80;19.60;;;7.80;80.20;;;;;;5057815;28;20029;-65
2024/01/03 04:24:00;;;;;;;47.58;22.05;;;7.80;80.20;;;;;;5057759;28;20052;-65
2024/01/03 04:26:27;;;;;;;42.72;21.25;;;7.80;80.20;;;;;;5057337;28;20465;-65
2024/01/03 04:28:53;;;;;;;58.67;27.00;;;7.80;80.20;;;;;;5057050;28;20032;-65
2024/01/03 04:31:18;;;;;;;47.28;23.20;;;7.80;80.10;;;;;;5057289;28;20082;-65
2024/01/03 04:33:44;;;;;;;43.92;21.40;;;7.80;80.10;;;;;;5057269;28;20411;-65
2024/01/03 04:36:13;;;;;;;45.08;20.52;;;7.80;80.10;;;;;;5057206;28;20341;-65
2024/01/03 04:38:39;;;;;;;44.97;22.20;;;7.80;80.20;;;;;;5057098;28;20025;-65
2024/01/03 04:41:05;;;;;;;42.58;20.35;;;7.80;80.30;;;;;;5057147;28;20434;-65
2024/01/03 04:43:31;;;;;;;45.67;21.83;;;7.80;80.20;;;;;;5056804;28;20028;-65
2024/01/03 04:45:57;;;;;;;43.70;21.25;;;7.90;80.20;;;;;;5056973;28;20052;-65
2024/01/03 04:48:23;;;;;;;44.72;21.88;;;7.90;80.10;;;;;;5056479;28;20080;-65
2024/01/03 04:50:49;;;;;;;45.40;22.10;;;7.90;80.20;;;;;;5056697;28;20033;-65
2024/01/03 04:53:14;;;;;;;46.15;22.23;;;7.90;80.20;;;;;;5056887;28;20028;-64
2024/01/03 04:55:40;;;;;;;48.15;23.35;;;7.90;80.20;;;;;;5057061;28;20029;-67
2024/01/03 04:58:06;;;;;;;45.90;22.02;;;7.80;80.20;;;;;;5056545;28;20021;-67
2024/01/03 05:00:36;;;;;;;42.17;21.17;;;7.80;80.10;;;;;;5056545;28;20036;-66
2024/01/03 05:03:02;;;;;;;41.08;21.17;;;7.90;80.10;;;;;;5056734;28;20138;-66
2024/01/03 05:05:28;;;;;;;50.70;23.63;;;7.90;80.10;;;;;;5056439;28;20031;-66
2024/01/03 05:07:56;;;;;;;51.67;24.85;;;7.80;80.10;;;;;;5056346;28;20021;-66
2024/01/03 05:10:22;;;;;;;48.28;22.10;;;7.80;80.20;;;;;;5056365;28;20031;-65
2024/01/03 05:12:47;;;;;;;45.03;22.42;;;7.80;80.20;;;;;;5056798;28;20096;-65
2024/01/03 05:15:13;;;;;;;49.25;21.65;;;7.80;80.30;;;;;;5056164;28;20078;-65
2024/01/03 05:17:41;;;;;;;44.35;21.70;;;7.90;80.30;;;;;;5056621;28;20060;-65
2024/01/03 05:20:08;;;;;;;42.90;19.73;;;7.90;80.30;;;;;;5056660;28;20484;-65
2024/01/03 05:22:34;;;;;;;42.35;19.88;;;7.90;80.30;;;;;;5056346;28;20512;-65
2024/01/03 05:25:00;;;;;;;42.00;19.90;;;7.90;80.30;;;;;;5056055;28;20025;-66
2024/01/03 05:27:26;;;;;;;38.63;19.33;;;7.90;80.30;;;;;;5038803;28;20094;-66
2024/01/03 05:29:52;;;;;;;47.30;22.15;;;7.90;80.30;;;;;;5038913;28;20361;-66
2024/01/03 05:32:18;;;;;;;47.78;22.80;;;7.90;80.30;;;;;;5055944;28;20035;-66
2024/01/03 05:34:44;;;;;;;40.30;19.35;;;7.90;80.40;;;;;;5055941;28;20498;-66
2024/01/03 05:37:10;;;;;;;46.15;21.98;;;7.90;80.40;;;;;;5055617;28;20085;-66
2024/01/03 05:39:37;;;;;;;42.85;20.35;;;7.90;80.30;;;;;;5055709;28;20036;-66
2024/01/03 05:42:03;;;;;;;44.88;21.52;;;7.90;80.40;;;;;;5055972;28;20064;-66
2024/01/03 05:44:29;;;;;;;42.30;20.98;;;7.90;80.40;;;;;;5055721;28;20025;-66
2024/01/03 05:46:54;;;;;;;42.95;21.52;;;7.90;80.30;;;;;;5055356;28;20029;-64
2024/01/03 05:49:20;;;;;;;39.40;20.27;;;7.90;80.30;;;;;;5055944;28;20060;-64
2024/01/03 05:51:46;;;;;;;42.50;20.70;;;7.90;80.20;;;;;;5055872;28;20104;-65
2024/01/03 05:54:12;;;;;;;50.75;22.35;;;7.90;80.20;;;;;;5055808;28;20033;-65
2024/01/03 05:56:38;;;;;;;42.80;20.73;;;7.90;80.20;;;;;;5055617;28;20032;-65
2024/01/03 05:59:04;;;;;;;50.67;23.33;;;7.90;80.30;;;;;;5055515;28;20091;-65
2024/01/03 06:01:30;;;;;;;44.40;21.13;;;7.90;80.30;;;;;;5056018;28;20028;-65
2024/01/03 06:03:56;;;;;;;38.83;19.73;;;7.90;80.30;;;;;;5055423;28;20021;-65
2024/01/03 06:06:22;;;;;;;42.50;20.63;;;7.90;80.30;;;;;;5055867;28;20025;-65
2024/01/03 06:08:48;;;;;;;37.85;19.58;;;7.90;80.30;;;;;;5055376;28;20381;-64
2024/01/03 06:11:14;;;;;;;49.28;23.25;;;7.90;80.30;;;;;;5055544;28;20103;-66
2024/01/03 06:13:40;;;;;;;51.95;23.20;;;7.90;80.20;;;;;;5055248;28;20056;-66
2024/01/03 06:16:06;;;;;;;50.47;22.70;;;7.90;80.20;;;;;;5055044;28;20349;-65
2024/01/03 06:18:32;;;;;;;47.25;21.70;;;7.90;80.20;;;;;;5055157;28;20025;-66
2024/01/03 06:20:58;;;;;;;44.30;21.30;;;7.90;80.30;;;;;;5055502;28;20096;-66
2024/01/03 06:23:25;;;;;;;46.65;21.65;;;7.90;80.30;;;;;;5055685;28;20025;-66
2024/01/03 06:25:52;;;;;;;44.33;21.08;;;7.90;80.30;;;;;;5055683;28;20084;-66
2024/01/03 06:28:17;;;;;;;41.40;20.10;;;7.90;80.20;;;;;;5055330;28;20032;-66
2024/01/03 06:30:43;;;;;;;46.78;22.20;;;7.90;80.20;;;;;;5055326;28;20159;-65
2024/01/03 06:33:09;;;;;;;43.20;20.98;;;7.90;80.20;;;;;;5055577;28;20029;-66
2024/01/03 06:35:35;;;;;;;43.13;20.38;;;7.90;80.30;;;;;;5055529;28;20035;-66
2024/01/03 06:38:03;;;;;;;40.83;19.67;;;7.90;80.30;;;;;;5054990;28;20029;-66
2024/01/03 06:40:30;;;;;;;43.72;21.42;;;7.90;80.30;;;;;;5054926;28;20029;-66
2024/01/03 06:42:56;;;;;;;41.50;20.17;;;7.90;80.30;;;;;;5058005;28;20028;-66
2024/01/03 06:45:22;;;;;;;44.38;20.83;;;7.90;80.30;;;;;;5059078;28;20453;-65
2024/01/03 06:47:48;;;;;;;43.13;20.65;;;7.90;80.20;;;;;;5058726;28;20056;-66
2024/01/03 06:50:14;;;;;;;43.95;20.02;;;8.00;80.30;;;;;;5058968;28;20027;-66
2024/01/03 06:52:40;;;;;;;44.45;20.45;;;8.00;80.20;;;;;;5059162;28;20096;-65
2024/01/03 06:55:06;;;;;;;43.20;20.75;;;8.00;80.20;;;;;;5041478;28;20088;-64
2024/01/03 06:57:32;;;;;;;46.15;23.10;;;8.00;80.20;;;;;;5067134;28;20099;-68
2024/01/03 06:59:58;;;;;;;45.50;22.10;;;8.00;80.20;;;;;;5078777;28;20414;-65
2024/01/03 07:02:25;;;;;;;41.88;21.65;;;7.90;80.10;;;;;;5079256;28;20090;-65
2024/01/03 07:04:50;;;;;;;39.80;19.20;;;7.90;80.10;;;;;;5078911;28;20028;-65
2024/01/03 07:07:17;;;;;;;40.15;18.95;;;7.90;80.20;;;;;;5078759;28;20025;-63
2024/01/03 07:09:43;;;;;;;38.67;19.65;;;8.00;80.20;;;;;;5078577;28;20476;-64
2024/01/03 07:12:09;;;;;;;38.25;19.90;;;7.90;80.20;;;;;;5078466;28;20365;-63
2024/01/03 07:14:35;;;;;;;44.30;21.48;;;8.00;80.30;;;;;;5078638;28;20024;-62
2024/01/03 07:17:02;;;;;;;41.15;20.15;;;7.90;80.20;;;;;;5078276;28;20073;-64
2024/01/03 07:19:28;;;;;;;40.53;19.13;;;8.00;80.20;;;;;;5078474;28;20066;-66
2024/01/03 07:21:54;;;;;;;39.80;18.73;;;8.00;80.20;;;;;;5078934;28;20095;-66
2024/01/03 07:24:20;;;;;;;38.97;20.00;;;8.00;80.20;;;;;;5078903;28;20447;-67
2024/01/03 07:26:46;;;;;;;38.92;20.05;;;8.00;80.20;;;;;;5078653;28;20036;-65
2024/01/03 07:29:12;;;;;;;38.72;19.90;;;8.10;80.20;;;;;;5078526;28;20470;-66
2024/01/03 07:31:38;;;;;;;43.42;20.83;;;8.00;80.20;;;;;;5078486;28;20110;-65
2024/01/03 07:34:04;;;;;;;40.47;19.58;;;8.00;80.20;;;;;;5078369;28;20461;-65
2024/01/03 07:36:31;;;;;;;38.95;20.52;;;8.10;80.20;;;;;;5077974;28;20082;-63
2024/01/03 07:38:58;;;;;;;39.10;19.35;;;8.10;80.10;;;;;;5078081;28;20024;-64
2024/01/03 07:41:24;;;;;;;41.72;20.42;;;8.10;80.20;;;;;;5077965;28;20029;-65
2024/01/03 07:43:49;;;;;;;42.15;19.45;;;8.10;80.20;;;;;;5060435;28;20035;-64
2024/01/03 07:46:17;;;;;;;42.13;20.95;;;8.10;80.10;;;;;;5060277;28;20063;-66
2024/01/03 07:48:42;;;;;;;37.80;19.73;;;8.10;80.20;;;;;;5077673;28;20032;-65
2024/01/03 07:51:10;;;;;;;43.53;20.95;;;8.10;80.30;;;;;;5060184;28;20039;-65
2024/01/03 07:53:37;;;;;;;39.80;18.92;;;8.10;80.20;;;;;;5060471;28;20066;-66
2024/01/03 07:56:06;;;;;;;42.92;21.45;;;8.10;80.30;;;;;;5077599;28;20035;-65
2024/01/03 07:58:32;;;;;;;39.22;18.58;;;8.10;80.40;;;;;;5077781;28;20099;-66
2024/01/03 08:00:58;;;;;;;43.40;21.63;;;8.10;80.30;;;;;;5077588;28;20353;-66
2024/01/03 08:03:24;;;;;;;44.80;21.38;;;8.20;80.40;;;;;;5060037;28;20024;-65
2024/01/03 08:05:50;;;;;;;42.25;20.13;;;8.20;80.30;;;;;;5077754;28;20104;-64
2024/01/03 08:08:16;;;;;;;38.03;19.58;;;8.20;80.30;;;;;;5077454;28;20025;-64
2024/01/03 08:10:42;;;;;;;45.72;21.65;;;8.20;80.30;;;;;;5077440;28;20042;-64
2024/01/03 08:13:07;;;;;;;45.42;21.35;;;8.20;80.30;;;;;;5076354;28;20020;-66
2024/01/03 08:15:34;;;;;;;42.72;20.02;;;8.30;80.30;;;;;;5077749;28;20033;-65
2024/01/03 08:18:00;;;;;;;40.40;21.35;;;8.30;80.30;;;;;;5077224;28;20020;-66
2024/01/03 08:20:26;;;;;;;42.17;22.23;;;8.30;80.40;;;;;;5076998;28;20038;-66
2024/01/03 08:22:52;;;;;;;37.97;20.33;;;8.40;80.40;;;;;;5059507;28;20111;-65
2024/01/03 08:25:17;;;;;;;43.72;21.80;;;8.40;80.30;;;;;;5042884;28;20024;-63
2024/01/03 08:27:43;;;;;;;41.28;21.88;;;8.40;80.30;;;;;;5077277;28;20040;-65
2024/01/03 08:30:09;;;;;;;44.63;21.80;;;8.40;80.20;;;;;;5076998;28;20052;-66
2024/01/03 08:32:36;;;;;;;43.00;20.63;;;8.40;80.30;;;;;;5059353;28;20130;-68
2024/01/03 08:35:03;;;;;;;44.78;21.95;;;8.40;80.20;;;;;;5076856;28;20412;-66
2024/01/03 08:37:30;;;;;;;40.75;20.98;;;8.40;80.10;;;;;;5076704;28;20042;-67
2024/01/03 08:39:56;;;;;;;43.38;20.90;;;8.50;80.20;;;;;;5059103;28;20032;-68
2024/01/03 08:42:25;;;;;;;43.58;21.58;;;8.40;80.20;;;;;;5076248;28;20012;-68
2024/01/03 08:44:51;;;;;;;42.38;20.55;;;8.50;80.20;;;;;;5076000;28;20024;-67
2024/01/03 08:47:17;;;;;;;44.67;21.20;;;8.50;80.20;;;;;;5075820;28;20067;-67
2024/01/03 08:49:45;;;;;;;45.90;20.77;;;8.50;80.20;;;;;;5076096;28;20176;-67
2024/01/03 08:54:46;;;;;;;44.22;21.25;;;8.60;80.20;;;;;;5209843;23;20049;-69
2024/01/03 08:57:12;;;;;;;44.90;22.45;;;8.60;80.30;;;;;;5055553;28;20099;-72
2024/01/03 08:59:38;;;;;;;39.10;18.65;;;8.60;80.20;;;;;;5056709;28;20417;-72
2024/01/03 09:02:04;;;;;;;47.00;23.42;;;8.60;80.20;;;;;;5056675;28;20044;-74
2024/01/03 09:04:30;;;;;;;43.65;22.67;;;8.60;80.20;;;;;;5056309;28;20096;-72
2024/01/03 09:06:56;;;;;;;42.78;21.05;;;8.70;80.20;;;;;;5056652;28;20104;-72
2024/01/03 09:09:22;;;;;;;41.88;20.77;;;8.70;80.20;;;;;;5055286;28;20032;-71
2024/01/03 09:11:49;;;;;;;42.10;19.85;;;8.70;80.10;;;;;;5056714;28;20025;-72
2024/01/03 09:14:16;;;;;;;42.70;20.05;;;8.80;80.10;;;;;;5056069;28;20054;-72
2024/01/03 09:16:42;;;;;;;35.80;16.42;;;8.80;80.00;;;;;;5056341;28;20029;-72
2024/01/03 09:19:08;;;;;;;43.72;18.42;;;8.80;80.00;;;;;;5056071;28;20099;-73
2024/01/03 09:21:34;;;;;;;36.28;18.08;;;8.80;79.90;;;;;;5056002;28;20020;-72
2024/01/03 09:24:02;;;;;;;41.25;17.90;;;8.90;79.90;;;;;;5055914;28;20032;-72
2024/01/03 09:26:28;;;;;;;42.72;19.27;;;8.90;79.90;;;;;;5055934;28;20029;-73
2024/01/03 09:28:54;;;;;;;34.05;15.98;;;8.90;80.00;;;;;;5056180;28;20100;-72
2024/01/03 09:31:20;;;;;;;43.35;20.38;;;8.90;79.90;;;;;;5056105;28;20055;-72
2024/01/03 09:33:46;;;;;;;41.25;19.15;;;9.00;79.80;;;;;;5054697;28;20029;-72
2024/01/03 09:36:21;;;;;;;41.20;19.85;;;9.00;79.80;;;;;;5034883;28;20065;-73
2024/01/03 09:38:48;;;;;;;45.40;18.90;;;9.10;79.70;;;;;;5034460;28;20021;-72
2024/01/03 09:41:15;;;;;;;39.63;19.30;;;9.10;79.70;;;;;;5034015;28;20029;-72
2024/01/03 09:43:42;;;;;;;43.00;18.83;;;9.20;79.70;;;;;;5035798;28;20339;-72
2024/01/03 09:46:12;;;;;;;41.50;18.73;;;9.20;79.60;;;;;;5036219;28;20025;-72
2024/01/03 09:48:41;;;;;;;50.30;22.23;;;9.20;79.50;;;;;;5035658;28;20377;-72
2024/01/03 09:51:08;;;;;;;42.20;20.48;;;9.30;79.30;;;;;;5035639;28;20508;-72
2024/01/03 09:53:35;;;;;;;40.50;17.38;;;9.20;79.10;;;;;;5035270;28;20179;-73
2024/01/03 09:56:01;;;;;;;46.28;19.73;;;9.30;79.30;;;;;;5036248;28;20095;-72
2024/01/03 09:58:27;;;;;;;45.65;17.23;;;9.30;79.20;;;;;;5036003;28;20021;-72
2024/01/03 10:00:53;;;;;;;45.17;20.05;;;9.40;79.10;;;;;;5035402;28;20029;-72
2024/01/03 10:03:19;;;;;;;39.08;17.45;;;9.40;79.00;;;;;;5018193;28;20101;-72
2024/01/03 10:05:45;;;;;;;42.30;18.90;;;9.50;78.90;;;;;;5035696;28;20111;-72
2024/01/03 10:08:16;;;;;;;43.60;19.98;;;9.50;78.70;;;;;;5035929;28;20025;-72
2024/01/03 10:10:45;;;;;;;40.90;18.20;;;9.50;78.70;;;;;;5035575;28;20029;-72
2024/01/03 10:13:18;;;;;;;53.15;24.27;;;9.60;78.70;;;;;;5035165;28;20032;-72
2024/01/03 10:15:46;;;;;;;43.50;20.02;;;9.60;78.50;;;;;;5035147;28;20029;-72
2024/01/03 10:18:15;;;;;;;41.00;18.02;;;9.70;78.40;;;;;;5017774;28;20108;-72
2024/01/03 10:20:42;;;;;;;39.05;17.77;;;9.70;78.30;;;;;;5035742;28;20026;-72
2024/01/03 10:23:12;;;;;;;48.38;19.40;;;9.80;78.20;;;;;;5035367;28;20103;-72
2024/01/03 10:25:42;;;;;;;42.10;19.35;;;9.80;78.20;;;;;;5018067;28;20037;-72
2024/01/03 10:28:15;;;;;;;49.13;19.65;;;9.90;77.90;;;;;;5035512;28;20022;-72
2024/01/03 10:30:42;;;;;;;41.03;20.10;;;9.90;77.90;;;;;;5035710;28;20026;-72
2024/01/03 10:33:09;;;;;;;44.55;19.23;;;10.00;77.70;;;;;;5326154;23;20051;-68
2024/01/03 10:35:44;;;;;;;44.55;18.83;;;10.00;77.70;;;;;;5035059;28;20402;-66
2024/01/03 10:38:13;;;;;;;42.80;18.02;;;10.00;77.80;;;;;;5035372;28;20099;-68
2024/01/03 10:40:43;;;;;;;50.15;22.83;;;10.00;77.60;;;;;;5035018;28;20104;-68
2024/01/03 10:43:09;;;;;;;46.60;20.00;;;10.00;76.80;;;;;;5034927;28;20472;-67
2024/01/03 10:45:35;;;;;;;43.40;18.20;;;10.10;76.90;;;;;;5035543;28;20075;-69
2024/01/03 10:48:03;;;;;;;43.45;18.67;;;10.00;77.20;;;;;;5035015;28;20104;-68
2024/01/03 10:50:29;;;;;;;44.45;19.50;;;10.10;77.30;;;;;;5035172;28;20040;-68
2024/01/03 10:52:57;;;;;;;50.88;20.35;;;10.10;77.00;;;;;;5034752;28;20323;-68
2024/01/03 10:55:37;;;;;;;47.17;18.33;;;10.10;77.30;;;;;;5034934;28;20025;-67
2024/01/03 10:58:18;;;;;;;43.00;17.63;;;10.20;77.40;;;;;;5035422;28;20450;-67
2024/01/03 11:00:55;;;;;;;43.10;18.67;;;10.20;77.40;;;;;;5035132;28;20017;-67
2024/01/03 11:07:01;;;;;;;38.03;18.00;;;10.30;77.10;;;;;;5238597;22;20126;-68
2024/01/03 11:09:28;;;;;;;46.65;19.92;;;10.30;76.60;;;;;;5065630;28;20056;-68
2024/01/03 11:12:10;;;;;;;64.60;26.80;;;10.30;76.60;;;;;;5075793;28;20036;-67
2024/01/03 11:14:36;;;;;;;45.88;18.52;;;10.30;76.70;;;;;;5075422;28;20504;-67
2024/01/03 11:17:03;;;;;;;49.38;19.90;;;10.30;76.90;;;;;;5075810;28;20052;-67
2024/01/03 11:19:30;;;;;;;47.08;19.48;;;10.30;76.80;;;;;;5075219;28;20025;-67
2024/01/03 11:22:05;;;;;;;46.97;19.08;;;10.30;76.30;;;;;;5073730;28;20024;-68
2024/01/03 11:24:30;;;;;;;49.30;20.25;;;10.30;76.30;;;;;;5075187;28;20040;-68
2024/01/03 11:27:04;;;;;;;46.60;20.40;;;10.30;76.70;;;;;;5074907;28;20029;-67
2024/01/03 11:29:35;;;;;;;52.22;21.25;;;10.30;76.70;;;;;;5077575;28;20086;-68
2024/01/03 11:32:05;;;;;;;40.80;17.55;;;10.30;76.80;;;;;;5078152;28;20388;-67
2024/01/03 11:34:49;;;;;;;41.17;18.45;;;10.30;76.80;;;;;;5078038;28;20032;-67
2024/01/03 11:37:18;;;;;;;43.05;19.20;;;10.30;76.90;;;;;;5060313;28;20361;-67
2024/01/03 11:39:46;;;;;;;46.80;19.80;;;10.30;76.80;;;;;;5078558;28;20024;-66
2024/01/03 11:42:19;;;;;;;42.25;17.55;;;10.40;76.70;;;;;;5077938;28;20025;-69
2024/01/03 11:44:45;;;;;;;38.42;16.13;;;10.30;76.50;;;;;;5077887;28;20021;-67
2024/01/03 11:47:12;;;;;;;42.90;18.17;;;10.30;76.60;;;;;;5078139;28;20059;-69
2024/01/03 11:49:40;;;;;;;45.85;19.05;;;10.30;76.60;;;;;;5077844;28;20441;-69
2024/01/03 11:52:06;;;;;;;44.65;19.45;;;10.30;76.10;;;;;;5076782;28;20036;-69
2024/01/03 11:54:33;;;;;;;44.33;19.17;;;10.20;76.30;;;;;;5077750;28;20457;-66
2024/01/03 11:57:07;;;;;;;48.97;22.70;;;10.20;76.50;;;;;;5077488;28;20043;-69
2024/01/03 11:59:33;;;;;;;35.65;16.90;;;10.20;76.70;;;;;;5077989;28;20032;-67
2024/01/03 12:01:59;;;;;;;42.22;19.67;;;10.20;76.60;;;;;;5077643;28;20017;-66
2024/01/03 12:04:26;;;;;;;44.13;17.92;;;10.20;76.60;;;;;;5077820;28;20103;-69
2024/01/03 12:06:59;;;;;;;48.10;18.23;;;10.20;76.50;;;;;;5077705;28;20049;-69
2024/01/03 12:09:31;;;;;;;38.97;16.45;;;10.20;76.40;;;;;;5076525;28;20089;-69
2024/01/03 12:11:57;;;;;;;40.13;16.77;;;10.20;76.30;;;;;;5077416;28;20037;-68
2024/01/03 12:14:24;;;;;;;39.80;16.58;;;10.20;76.10;;;;;;5077446;28;20034;-67
2024/01/03 12:16:54;;;;;;;36.47;15.52;;;10.20;76.30;;;;;;5077748;28;20078;-67
2024/01/03 12:22:25;;;;;;;39.78;15.55;;;10.20;76.30;;;;;;5256248;22;20057;-69
2024/01/03 12:24:51;;;;;;;39.25;16.27;;;10.20;76.60;;;;;;5037793;28;20472;-67
2024/01/03 12:27:22;;;;;;;39.13;14.80;;;10.20;76.20;;;;;;5037469;28;20049;-67
2024/01/03 12:29:48;;;;;;;34.35;14.23;;;10.20;76.40;;;;;;5037363;28;20013;-67
2024/01/03 12:32:20;;;;;;;35.03;14.05;;;10.20;76.40;;;;;;5037039;28;20096;-68
2024/01/03 12:34:47;;;;;;;38.75;16.27;;;10.20;76.50;;;;;;5036994;28;20075;-67
2024/01/03 12:37:14;;;;;;;37.15;15.68;;;10.30;76.00;;;;;;5036823;28;20457;-67
2024/01/03 12:39:41;;;;;;;36.50;15.40;;;10.20;75.50;;;;;;5036283;28;20071;-67
2024/01/03 12:42:09;;;;;;;38.25;14.82;;;10.20;75.60;;;;;;5037085;28;20338;-68
2024/01/03 12:44:37;;;;;;;37.78;15.27;;;10.20;76.00;;;;;;5036898;28;20045;-67